sensor_id;sensor_type;location;lat;lon;timestamp;P1;durP1;ratioP1;P2;durP2;ratioP2
9288;SDS011;4683;50.864;12.086;2023-08-31T00:01:01;1.60;;;1.50;;
9288;SDS011;4683;50.864;12.086;2023-08-31T00:03:36;1.30;;;1.20;;
9288;SDS011;4683;50.864;12.086;2023-08-31T00:06:05;1.83;;;1.67;;
9288;SDS011;4683;50.864;12.086;2023-08-31T00:08:35;1.80;;;1.70;;
9288;SDS011;4683;50.864;12.086;2023-08-31T00:11:03;2.53;;;1.43;;
9288;SDS011;4683;50.864;12.086;2023-08-31T00:13:32;1.90;;;1.70;;
9288;SDS011;4683;50.864;12.086;2023-08-31T00:16:03;1.47;;;1.37;;
9288;SDS011;4683;50.864;12.086;2023-08-31T00:18:35;1.57;;;1.47;;
9288;SDS011;4683;50.864;12.086;2023-08-31T00:24:14;2.07;;;1.77;;
9288;SDS011;4683;50.864;12.086;2023-08-31T00:26:43;1.90;;;1.80;;
9288;SDS011;4683;50.864;12.086;2023-08-31T00:29:12;2.27;;;1.57;;
9288;SDS011;4683;50.864;12.086;2023-08-31T00:31:43;1.50;;;1.40;;
9288;SDS011;4683;50.864;12.086;2023-08-31T00:34:14;2.67;;;1.90;;
9288;SDS011;4683;50.864;12.086;2023-08-31T00:36:43;1.97;;;1.87;;
9288;SDS011;4683;50.864;12.086;2023-08-31T00:39:11;2.07;;;1.87;;
9288;SDS011;4683;50.864;12.086;2023-08-31T00:41:40;3.30;;;1.80;;
9288;SDS011;4683;50.864;12.086;2023-08-31T00:44:11;1.67;;;1.57;;
9288;SDS011;4683;50.864;12.086;2023-08-31T00:46:40;1.50;;;1.40;;
9288;SDS011;4683;50.864;12.086;2023-08-31T00:49:10;2.33;;;1.90;;
9288;SDS011;4683;50.864;12.086;2023-08-31T00:51:40;1.77;;;1.57;;
9288;SDS011;4683;50.864;12.086;2023-08-31T00:54:14;1.97;;;1.47;;
9288;SDS011;4683;50.864;12.086;2023-08-31T00:56:44;1.50;;;1.40;;
9288;SDS011;4683;50.864;12.086;2023-08-31T00:59:12;2.10;;;1.90;;
9288;SDS011;4683;50.864;12.086;2023-08-31T01:01:43;2.20;;;2.00;;
9288;SDS011;4683;50.864;12.086;2023-08-31T01:04:26;2.00;;;1.90;;
9288;SDS011;4683;50.864;12.086;2023-08-31T01:07:11;2.10;;;2.00;;
9288;SDS011;4683;50.864;12.086;2023-08-31T01:09:50;2.40;;;2.00;;
9288;SDS011;4683;50.864;12.086;2023-08-31T01:12:32;2.20;;;2.00;;
9288;SDS011;4683;50.864;12.086;2023-08-31T01:15:14;2.40;;;1.80;;
9288;SDS011;4683;50.864;12.086;2023-08-31T01:17:44;2.17;;;2.00;;
9288;SDS011;4683;50.864;12.086;2023-08-31T01:20:19;2.20;;;2.00;;
9288;SDS011;4683;50.864;12.086;2023-08-31T01:23:00;2.20;;;2.00;;
9288;SDS011;4683;50.864;12.086;2023-08-31T01:25:36;1.93;;;1.83;;
9288;SDS011;4683;50.864;12.086;2023-08-31T01:28:06;1.90;;;1.80;;
9288;SDS011;4683;50.864;12.086;2023-08-31T01:30:35;2.33;;;2.00;;
9288;SDS011;4683;50.864;12.086;2023-08-31T01:33:04;2.07;;;1.87;;
9288;SDS011;4683;50.864;12.086;2023-08-31T01:35:33;2.50;;;2.00;;
9288;SDS011;4683;50.864;12.086;2023-08-31T01:38:10;2.00;;;1.90;;
9288;SDS011;4683;50.864;12.086;2023-08-31T01:40:44;2.70;;;2.17;;
9288;SDS011;4683;50.864;12.086;2023-08-31T01:43:19;2.37;;;1.93;;
9288;SDS011;4683;50.864;12.086;2023-08-31T01:45:50;2.70;;;2.47;;
9288;SDS011;4683;50.864;12.086;2023-08-31T01:48:19;2.30;;;2.10;;
9288;SDS011;4683;50.864;12.086;2023-08-31T01:50:48;3.07;;;2.10;;
9288;SDS011;4683;50.864;12.086;2023-08-31T01:53:18;2.43;;;2.30;;
9288;SDS011;4683;50.864;12.086;2023-08-31T01:55:49;2.47;;;2.33;;
9288;SDS011;4683;50.864;12.086;2023-08-31T01:58:17;2.47;;;2.27;;
9288;SDS011;4683;50.864;12.086;2023-08-31T02:00:46;2.10;;;2.00;;
9288;SDS011;4683;50.864;12.086;2023-08-31T02:03:14;2.70;;;2.37;;
9288;SDS011;4683;50.864;12.086;2023-08-31T02:05:43;2.03;;;1.80;;
9288;SDS011;4683;50.864;12.086;2023-08-31T02:08:11;2.83;;;2.63;;
9288;SDS011;4683;50.864;12.086;2023-08-31T02:10:43;2.13;;;2.03;;
9288;SDS011;4683;50.864;12.086;2023-08-31T02:13:15;2.17;;;1.97;;
9288;SDS011;4683;50.864;12.086;2023-08-31T02:15:43;2.40;;;2.20;;
9288;SDS011;4683;50.864;12.086;2023-08-31T02:18:12;2.70;;;2.50;;
9288;SDS011;4683;50.864;12.086;2023-08-31T02:20:40;3.10;;;2.10;;
9288;SDS011;4683;50.864;12.086;2023-08-31T02:23:09;2.87;;;2.30;;
9288;SDS011;4683;50.864;12.086;2023-08-31T02:25:37;2.67;;;2.47;;
9288;SDS011;4683;50.864;12.086;2023-08-31T02:28:06;2.60;;;2.40;;
9288;SDS011;4683;50.864;12.086;2023-08-31T02:30:36;2.70;;;2.50;;
9288;SDS011;4683;50.864;12.086;2023-08-31T02:37:10;2.97;;;2.50;;
9288;SDS011;4683;50.864;12.086;2023-08-31T02:39:38;3.00;;;2.70;;
9288;SDS011;4683;50.864;12.086;2023-08-31T02:42:07;2.83;;;2.63;;
9288;SDS011;4683;50.864;12.086;2023-08-31T02:44:35;2.53;;;2.33;;
9288;SDS011;4683;50.864;12.086;2023-08-31T02:47:05;2.93;;;2.73;;
9288;SDS011;4683;50.864;12.086;2023-08-31T02:49:35;2.60;;;2.40;;
9288;SDS011;4683;50.864;12.086;2023-08-31T02:52:03;2.90;;;2.53;;
9288;SDS011;4683;50.864;12.086;2023-08-31T02:54:33;2.47;;;2.27;;
9288;SDS011;4683;50.864;12.086;2023-08-31T02:57:01;2.40;;;2.20;;
9288;SDS011;4683;50.864;12.086;2023-08-31T02:59:31;2.57;;;2.37;;
9288;SDS011;4683;50.864;12.086;2023-08-31T03:02:02;2.90;;;2.70;;
9288;SDS011;4683;50.864;12.086;2023-08-31T03:04:33;2.53;;;2.33;;
9288;SDS011;4683;50.864;12.086;2023-08-31T03:07:04;3.13;;;2.50;;
9288;SDS011;4683;50.864;12.086;2023-08-31T03:09:33;2.70;;;2.50;;
9288;SDS011;4683;50.864;12.086;2023-08-31T03:12:04;2.63;;;2.43;;
9288;SDS011;4683;50.864;12.086;2023-08-31T03:14:34;2.50;;;2.30;;
9288;SDS011;4683;50.864;12.086;2023-08-31T03:17:03;2.23;;;2.03;;
9288;SDS011;4683;50.864;12.086;2023-08-31T03:19:32;2.70;;;2.40;;
9288;SDS011;4683;50.864;12.086;2023-08-31T03:22:01;2.97;;;2.67;;
9288;SDS011;4683;50.864;12.086;2023-08-31T03:24:31;2.90;;;2.70;;
9288;SDS011;4683;50.864;12.086;2023-08-31T03:27:00;2.40;;;2.20;;
9288;SDS011;4683;50.864;12.086;2023-08-31T03:29:30;2.23;;;2.07;;
9288;SDS011;4683;50.864;12.086;2023-08-31T03:32:00;2.80;;;2.50;;
9288;SDS011;4683;50.864;12.086;2023-08-31T03:34:34;2.50;;;2.30;;
9288;SDS011;4683;50.864;12.086;2023-08-31T03:37:03;2.40;;;2.20;;
9288;SDS011;4683;50.864;12.086;2023-08-31T03:39:32;2.23;;;2.03;;
9288;SDS011;4683;50.864;12.086;2023-08-31T03:42:00;2.20;;;2.10;;
9288;SDS011;4683;50.864;12.086;2023-08-31T03:44:29;3.00;;;2.40;;
9288;SDS011;4683;50.864;12.086;2023-08-31T03:46:58;2.63;;;2.30;;
9288;SDS011;4683;50.864;12.086;2023-08-31T03:49:28;2.37;;;2.17;;
9288;SDS011;4683;50.864;12.086;2023-08-31T03:51:57;2.77;;;2.53;;
9288;SDS011;4683;50.864;12.086;2023-08-31T03:54:26;2.50;;;2.30;;
9288;SDS011;4683;50.864;12.086;2023-08-31T03:56:54;2.80;;;2.60;;
9288;SDS011;4683;50.864;12.086;2023-08-31T03:59:24;2.57;;;2.37;;
9288;SDS011;4683;50.864;12.086;2023-08-31T04:01:52;2.60;;;2.40;;
9288;SDS011;4683;50.864;12.086;2023-08-31T04:04:21;3.33;;;2.10;;
9288;SDS011;4683;50.864;12.086;2023-08-31T04:06:52;2.80;;;2.60;;
9288;SDS011;4683;50.864;12.086;2023-08-31T04:09:20;2.60;;;2.40;;
9288;SDS011;4683;50.864;12.086;2023-08-31T04:11:50;3.57;;;2.77;;
9288;SDS011;4683;50.864;12.086;2023-08-31T04:14:18;2.90;;;2.70;;
9288;SDS011;4683;50.864;12.086;2023-08-31T04:16:48;2.53;;;2.27;;
9288;SDS011;4683;50.864;12.086;2023-08-31T04:19:16;2.77;;;2.17;;
9288;SDS011;4683;50.864;12.086;2023-08-31T04:21:45;3.00;;;2.80;;
9288;SDS011;4683;50.864;12.086;2023-08-31T04:24:15;2.33;;;2.13;;
9288;SDS011;4683;50.864;12.086;2023-08-31T04:26:44;4.30;;;2.60;;
9288;SDS011;4683;50.864;12.086;2023-08-31T04:29:15;3.23;;;2.43;;
9288;SDS011;4683;50.864;12.086;2023-08-31T04:31:43;2.80;;;2.50;;
9288;SDS011;4683;50.864;12.086;2023-08-31T04:34:12;3.20;;;2.40;;
9288;SDS011;4683;50.864;12.086;2023-08-31T04:36:41;2.90;;;2.57;;
9288;SDS011;4683;50.864;12.086;2023-08-31T04:39:10;3.47;;;2.40;;
9288;SDS011;4683;50.864;12.086;2023-08-31T04:41:40;8.53;;;3.20;;
9288;SDS011;4683;50.864;12.086;2023-08-31T04:44:09;5.63;;;2.93;;
9288;SDS011;4683;50.864;12.086;2023-08-31T04:46:38;2.37;;;2.17;;
9288;SDS011;4683;50.864;12.086;2023-08-31T04:49:07;3.93;;;2.83;;
9288;SDS011;4683;50.864;12.086;2023-08-31T04:51:37;3.53;;;3.20;;
9288;SDS011;4683;50.864;12.086;2023-08-31T04:54:07;2.97;;;2.67;;
9288;SDS011;4683;50.864;12.086;2023-08-31T04:56:37;3.97;;;3.23;;
9288;SDS011;4683;50.864;12.086;2023-08-31T04:59:07;2.60;;;2.40;;
9288;SDS011;4683;50.864;12.086;2023-08-31T05:01:39;3.20;;;2.90;;
9288;SDS011;4683;50.864;12.086;2023-08-31T05:04:08;3.23;;;2.83;;
9288;SDS011;4683;50.864;12.086;2023-08-31T05:06:38;4.93;;;2.93;;
9288;SDS011;4683;50.864;12.086;2023-08-31T05:09:07;4.17;;;3.40;;
9288;SDS011;4683;50.864;12.086;2023-08-31T05:11:35;5.33;;;3.63;;
9288;SDS011;4683;50.864;12.086;2023-08-31T05:14:04;3.70;;;3.40;;
9288;SDS011;4683;50.864;12.086;2023-08-31T05:16:40;4.60;;;4.20;;
9288;SDS011;4683;50.864;12.086;2023-08-31T05:19:09;4.43;;;4.03;;
9288;SDS011;4683;50.864;12.086;2023-08-31T05:21:38;4.50;;;3.80;;
9288;SDS011;4683;50.864;12.086;2023-08-31T05:24:07;3.90;;;3.53;;
9288;SDS011;4683;50.864;12.086;2023-08-31T05:26:36;3.50;;;3.20;;
9288;SDS011;4683;50.864;12.086;2023-08-31T05:29:06;4.57;;;3.20;;
9288;SDS011;4683;50.864;12.086;2023-08-31T05:31:36;3.30;;;3.00;;
9288;SDS011;4683;50.864;12.086;2023-08-31T05:34:08;3.40;;;3.10;;
9288;SDS011;4683;50.864;12.086;2023-08-31T05:36:40;3.80;;;3.40;;
9288;SDS011;4683;50.864;12.086;2023-08-31T05:39:15;3.50;;;3.20;;
9288;SDS011;4683;50.864;12.086;2023-08-31T05:41:45;3.93;;;3.53;;
9288;SDS011;4683;50.864;12.086;2023-08-31T05:44:16;3.53;;;3.20;;
9288;SDS011;4683;50.864;12.086;2023-08-31T05:46:48;3.60;;;3.27;;
9288;SDS011;4683;50.864;12.086;2023-08-31T05:49:18;3.70;;;3.40;;
9288;SDS011;4683;50.864;12.086;2023-08-31T05:51:46;3.47;;;3.10;;
9288;SDS011;4683;50.864;12.086;2023-08-31T05:54:15;4.23;;;3.77;;
9288;SDS011;4683;50.864;12.086;2023-08-31T05:56:44;3.63;;;3.33;;
9288;SDS011;4683;50.864;12.086;2023-08-31T05:59:14;5.10;;;3.90;;
9288;SDS011;4683;50.864;12.086;2023-08-31T06:01:43;3.37;;;3.07;;
9288;SDS011;4683;50.864;12.086;2023-08-31T06:04:13;3.47;;;3.17;;
9288;SDS011;4683;50.864;12.086;2023-08-31T06:06:45;5.63;;;3.43;;
9288;SDS011;4683;50.864;12.086;2023-08-31T06:09:14;3.80;;;3.40;;
9288;SDS011;4683;50.864;12.086;2023-08-31T06:11:42;4.63;;;3.53;;
9288;SDS011;4683;50.864;12.086;2023-08-31T06:14:14;3.50;;;3.20;;
9288;SDS011;4683;50.864;12.086;2023-08-31T06:16:45;3.33;;;3.03;;
9288;SDS011;4683;50.864;12.086;2023-08-31T06:19:16;3.87;;;3.10;;
9288;SDS011;4683;50.864;12.086;2023-08-31T06:21:47;3.67;;;3.37;;
9288;SDS011;4683;50.864;12.086;2023-08-31T06:24:17;5.27;;;3.40;;
9288;SDS011;4683;50.864;12.086;2023-08-31T06:26:55;3.87;;;3.50;;
9288;SDS011;4683;50.864;12.086;2023-08-31T06:29:24;3.80;;;3.50;;
9288;SDS011;4683;50.864;12.086;2023-08-31T06:31:52;3.23;;;3.03;;
9288;SDS011;4683;50.864;12.086;2023-08-31T06:34:36;7.57;;;3.80;;
9288;SDS011;4683;50.864;12.086;2023-08-31T06:37:08;3.47;;;3.17;;
9288;SDS011;4683;50.864;12.086;2023-08-31T06:39:36;4.10;;;3.20;;
9288;SDS011;4683;50.864;12.086;2023-08-31T06:42:04;3.10;;;2.90;;
9288;SDS011;4683;50.864;12.086;2023-08-31T06:44:33;5.07;;;3.67;;
9288;SDS011;4683;50.864;12.086;2023-08-31T06:47:01;3.43;;;3.13;;
9288;SDS011;4683;50.864;12.086;2023-08-31T06:49:30;4.00;;;3.43;;
9288;SDS011;4683;50.864;12.086;2023-08-31T06:51:59;3.57;;;3.20;;
9288;SDS011;4683;50.864;12.086;2023-08-31T06:54:30;3.33;;;3.13;;
9288;SDS011;4683;50.864;12.086;2023-08-31T06:57:17;3.37;;;3.07;;
9288;SDS011;4683;50.864;12.086;2023-08-31T06:59:46;4.67;;;3.87;;
9288;SDS011;4683;50.864;12.086;2023-08-31T07:02:21;3.77;;;3.37;;
9288;SDS011;4683;50.864;12.086;2023-08-31T07:04:50;3.53;;;3.20;;
9288;SDS011;4683;50.864;12.086;2023-08-31T07:07:33;6.63;;;3.70;;
9288;SDS011;4683;50.864;12.086;2023-08-31T07:10:07;4.27;;;3.50;;
9288;SDS011;4683;50.864;12.086;2023-08-31T07:12:37;6.70;;;3.90;;
9288;SDS011;4683;50.864;12.086;2023-08-31T07:15:16;4.47;;;4.00;;
9288;SDS011;4683;50.864;12.086;2023-08-31T07:17:45;3.73;;;3.07;;
9288;SDS011;4683;50.864;12.086;2023-08-31T07:20:13;3.63;;;3.33;;
9288;SDS011;4683;50.864;12.086;2023-08-31T07:22:41;3.10;;;2.80;;
9288;SDS011;4683;50.864;12.086;2023-08-31T07:25:13;3.90;;;3.33;;
9288;SDS011;4683;50.864;12.086;2023-08-31T07:27:49;3.70;;;3.37;;
9288;SDS011;4683;50.864;12.086;2023-08-31T07:30:20;2.13;;;2.03;;
9288;SDS011;4683;50.864;12.086;2023-08-31T07:33:10;4.77;;;3.37;;
9288;SDS011;4683;50.864;12.086;2023-08-31T07:35:42;3.23;;;3.03;;
9288;SDS011;4683;50.864;12.086;2023-08-31T07:38:11;4.47;;;3.47;;
9288;SDS011;4683;50.864;12.086;2023-08-31T07:40:42;5.67;;;3.63;;
9288;SDS011;4683;50.864;12.086;2023-08-31T07:43:10;3.30;;;3.00;;
9288;SDS011;4683;50.864;12.086;2023-08-31T07:45:39;3.97;;;3.20;;
9288;SDS011;4683;50.864;12.086;2023-08-31T07:48:07;4.23;;;2.60;;
9288;SDS011;4683;50.864;12.086;2023-08-31T07:50:36;3.60;;;3.30;;
9288;SDS011;4683;50.864;12.086;2023-08-31T07:53:05;2.37;;;2.20;;
9288;SDS011;4683;50.864;12.086;2023-08-31T07:55:37;3.70;;;3.40;;
9288;SDS011;4683;50.864;12.086;2023-08-31T07:58:08;3.63;;;3.33;;
9288;SDS011;4683;50.864;12.086;2023-08-31T08:00:41;3.97;;;3.13;;
9288;SDS011;4683;50.864;12.086;2023-08-31T08:03:09;4.10;;;3.43;;
9288;SDS011;4683;50.864;12.086;2023-08-31T08:05:59;4.00;;;3.23;;
9288;SDS011;4683;50.864;12.086;2023-08-31T08:08:29;3.33;;;3.03;;
9288;SDS011;4683;50.864;12.086;2023-08-31T08:11:01;2.83;;;2.63;;
9288;SDS011;4683;50.864;12.086;2023-08-31T08:13:32;3.20;;;2.90;;
9288;SDS011;4683;50.864;12.086;2023-08-31T08:16:00;4.17;;;2.73;;
9288;SDS011;4683;50.864;12.086;2023-08-31T08:18:31;3.37;;;2.93;;
9288;SDS011;4683;50.864;12.086;2023-08-31T08:21:01;5.37;;;3.30;;
9288;SDS011;4683;50.864;12.086;2023-08-31T08:23:51;4.70;;;3.00;;
9288;SDS011;4683;50.864;12.086;2023-08-31T08:26:23;4.37;;;3.07;;
9288;SDS011;4683;50.864;12.086;2023-08-31T08:28:52;4.47;;;2.77;;
9288;SDS011;4683;50.864;12.086;2023-08-31T08:31:23;3.03;;;2.83;;
9288;SDS011;4683;50.864;12.086;2023-08-31T08:33:52;3.27;;;2.80;;
9288;SDS011;4683;50.864;12.086;2023-08-31T08:36:39;3.17;;;2.70;;
9288;SDS011;4683;50.864;12.086;2023-08-31T08:39:10;1.67;;;1.57;;
9288;SDS011;4683;50.864;12.086;2023-08-31T08:41:44;2.97;;;2.70;;
9288;SDS011;4683;50.864;12.086;2023-08-31T08:44:22;3.60;;;2.70;;
9288;SDS011;4683;50.864;12.086;2023-08-31T08:46:53;4.17;;;3.00;;
9288;SDS011;4683;50.864;12.086;2023-08-31T08:49:24;3.93;;;2.40;;
9288;SDS011;4683;50.864;12.086;2023-08-31T08:51:55;3.40;;;2.87;;
9288;SDS011;4683;50.864;12.086;2023-08-31T08:54:28;4.37;;;2.93;;
9288;SDS011;4683;50.864;12.086;2023-08-31T08:57:03;2.50;;;2.30;;
9288;SDS011;4683;50.864;12.086;2023-08-31T08:59:53;2.80;;;2.60;;
9288;SDS011;4683;50.864;12.086;2023-08-31T09:02:24;5.33;;;2.77;;
9288;SDS011;4683;50.864;12.086;2023-08-31T09:04:58;4.07;;;2.83;;
9288;SDS011;4683;50.864;12.086;2023-08-31T09:07:27;3.10;;;2.60;;
9288;SDS011;4683;50.864;12.086;2023-08-31T09:10:01;3.03;;;2.70;;
9288;SDS011;4683;50.864;12.086;2023-08-31T09:12:35;2.47;;;2.27;;
9288;SDS011;4683;50.864;12.086;2023-08-31T09:15:06;3.60;;;2.23;;
9288;SDS011;4683;50.864;12.086;2023-08-31T09:17:41;2.13;;;2.03;;
9288;SDS011;4683;50.864;12.086;2023-08-31T09:20:29;2.20;;;2.10;;
9288;SDS011;4683;50.864;12.086;2023-08-31T09:23:00;2.30;;;2.10;;
9288;SDS011;4683;50.864;12.086;2023-08-31T09:25:29;3.40;;;2.60;;
9288;SDS011;4683;50.864;12.086;2023-08-31T09:27:59;3.10;;;2.40;;
9288;SDS011;4683;50.864;12.086;2023-08-31T09:30:34;3.17;;;2.33;;
9288;SDS011;4683;50.864;12.086;2023-08-31T09:33:12;2.70;;;2.50;;
9288;SDS011;4683;50.864;12.086;2023-08-31T09:35:47;2.73;;;2.50;;
9288;SDS011;4683;50.864;12.086;2023-08-31T09:38:17;2.57;;;2.07;;
9288;SDS011;4683;50.864;12.086;2023-08-31T09:40:48;4.20;;;2.20;;
9288;SDS011;4683;50.864;12.086;2023-08-31T09:43:20;2.70;;;2.30;;
9288;SDS011;4683;50.864;12.086;2023-08-31T09:45:50;2.30;;;2.10;;
9288;SDS011;4683;50.864;12.086;2023-08-31T09:48:19;2.53;;;1.83;;
9288;SDS011;4683;50.864;12.086;2023-08-31T09:50:49;1.53;;;1.43;;
9288;SDS011;4683;50.864;12.086;2023-08-31T09:53:20;3.00;;;2.33;;
9288;SDS011;4683;50.864;12.086;2023-08-31T09:55:51;3.57;;;1.93;;
9288;SDS011;4683;50.864;12.086;2023-08-31T09:58:26;2.67;;;1.80;;
9288;SDS011;4683;50.864;12.086;2023-08-31T10:00:57;2.20;;;1.97;;
9288;SDS011;4683;50.864;12.086;2023-08-31T10:03:27;2.13;;;1.57;;
9288;SDS011;4683;50.864;12.086;2023-08-31T10:05:56;2.13;;;1.93;;
9288;SDS011;4683;50.864;12.086;2023-08-31T10:08:26;2.87;;;1.57;;
9288;SDS011;4683;50.864;12.086;2023-08-31T10:10:58;2.37;;;1.80;;
9288;SDS011;4683;50.864;12.086;2023-08-31T10:13:31;2.47;;;1.80;;
9288;SDS011;4683;50.864;12.086;2023-08-31T10:16:04;2.67;;;1.80;;
9288;SDS011;4683;50.864;12.086;2023-08-31T10:18:34;2.77;;;1.20;;
9288;SDS011;4683;50.864;12.086;2023-08-31T10:21:03;2.10;;;1.83;;
9288;SDS011;4683;50.864;12.086;2023-08-31T10:23:44;2.50;;;2.00;;
9288;SDS011;4683;50.864;12.086;2023-08-31T10:26:19;1.57;;;1.30;;
9288;SDS011;4683;50.864;12.086;2023-08-31T10:29:08;2.57;;;1.50;;
9288;SDS011;4683;50.864;12.086;2023-08-31T10:31:58;1.70;;;1.60;;
9288;SDS011;4683;50.864;12.086;2023-08-31T10:34:36;1.90;;;1.50;;
9288;SDS011;4683;50.864;12.086;2023-08-31T10:37:19;1.93;;;1.57;;
9288;SDS011;4683;50.864;12.086;2023-08-31T10:39:48;1.30;;;1.20;;
9288;SDS011;4683;50.864;12.086;2023-08-31T10:42:42;2.00;;;1.80;;
9288;SDS011;4683;50.864;12.086;2023-08-31T10:45:15;1.80;;;1.50;;
9288;SDS011;4683;50.864;12.086;2023-08-31T10:47:52;2.63;;;1.63;;
9288;SDS011;4683;50.864;12.086;2023-08-31T10:50:33;5.60;;;2.00;;
9288;SDS011;4683;50.864;12.086;2023-08-31T10:53:09;3.43;;;2.20;;
9288;SDS011;4683;50.864;12.086;2023-08-31T10:55:49;2.33;;;1.77;;
9288;SDS011;4683;50.864;12.086;2023-08-31T10:58:18;4.10;;;2.10;;
9288;SDS011;4683;50.864;12.086;2023-08-31T11:00:52;2.30;;;2.10;;
9288;SDS011;4683;50.864;12.086;2023-08-31T11:03:45;2.23;;;1.77;;
9288;SDS011;4683;50.864;12.086;2023-08-31T11:06:44;1.67;;;1.57;;
9288;SDS011;4683;50.864;12.086;2023-08-31T11:09:17;2.60;;;1.60;;
9288;SDS011;4683;50.864;12.086;2023-08-31T11:11:47;1.90;;;1.60;;
9288;SDS011;4683;50.864;12.086;2023-08-31T11:14:17;2.07;;;1.87;;
9288;SDS011;4683;50.864;12.086;2023-08-31T11:16:48;2.53;;;1.90;;
9288;SDS011;4683;50.864;12.086;2023-08-31T11:19:18;2.67;;;1.70;;
9288;SDS011;4683;50.864;12.086;2023-08-31T11:21:52;1.80;;;1.70;;
9288;SDS011;4683;50.864;12.086;2023-08-31T11:24:21;2.33;;;1.50;;
9288;SDS011;4683;50.864;12.086;2023-08-31T11:26:54;1.70;;;1.60;;
9288;SDS011;4683;50.864;12.086;2023-08-31T11:29:38;2.00;;;1.80;;
9288;SDS011;4683;50.864;12.086;2023-08-31T11:32:13;2.03;;;1.83;;
9288;SDS011;4683;50.864;12.086;2023-08-31T11:34:53;1.63;;;1.43;;
9288;SDS011;4683;50.864;12.086;2023-08-31T11:37:26;1.40;;;1.30;;
9288;SDS011;4683;50.864;12.086;2023-08-31T11:39:59;2.80;;;1.50;;
9288;SDS011;4683;50.864;12.086;2023-08-31T11:42:37;1.30;;;1.17;;
9288;SDS011;4683;50.864;12.086;2023-08-31T11:45:08;2.40;;;1.50;;
9288;SDS011;4683;50.864;12.086;2023-08-31T11:47:46;2.03;;;1.60;;
9288;SDS011;4683;50.864;12.086;2023-08-31T11:50:31;2.80;;;1.90;;
9288;SDS011;4683;50.864;12.086;2023-08-31T11:53:04;1.57;;;1.47;;
9288;SDS011;4683;50.864;12.086;2023-08-31T11:55:41;2.20;;;1.50;;
9288;SDS011;4683;50.864;12.086;2023-08-31T11:58:20;1.30;;;1.20;;
9288;SDS011;4683;50.864;12.086;2023-08-31T12:00:56;1.67;;;1.57;;
9288;SDS011;4683;50.864;12.086;2023-08-31T12:03:27;1.00;;;0.90;;
9288;SDS011;4683;50.864;12.086;2023-08-31T12:06:14;1.83;;;1.57;;
9288;SDS011;4683;50.864;12.086;2023-08-31T12:08:44;1.80;;;1.20;;
9288;SDS011;4683;50.864;12.086;2023-08-31T12:11:13;1.93;;;1.00;;
9288;SDS011;4683;50.864;12.086;2023-08-31T12:13:42;2.60;;;1.60;;
9288;SDS011;4683;50.864;12.086;2023-08-31T12:16:13;1.30;;;1.20;;
9288;SDS011;4683;50.864;12.086;2023-08-31T12:18:47;1.83;;;1.57;;
9288;SDS011;4683;50.864;12.086;2023-08-31T12:21:36;2.10;;;1.30;;
9288;SDS011;4683;50.864;12.086;2023-08-31T12:24:05;2.77;;;1.37;;
9288;SDS011;4683;50.864;12.086;2023-08-31T12:26:36;1.80;;;1.00;;
9288;SDS011;4683;50.864;12.086;2023-08-31T12:29:06;1.43;;;1.30;;
9288;SDS011;4683;50.864;12.086;2023-08-31T12:31:38;1.87;;;1.70;;
9288;SDS011;4683;50.864;12.086;2023-08-31T12:34:08;1.97;;;1.87;;
9288;SDS011;4683;50.864;12.086;2023-08-31T12:36:38;1.93;;;1.53;;
9288;SDS011;4683;50.864;12.086;2023-08-31T12:39:16;1.40;;;1.20;;
9288;SDS011;4683;50.864;12.086;2023-08-31T12:41:59;1.40;;;1.30;;
9288;SDS011;4683;50.864;12.086;2023-08-31T12:44:31;2.50;;;1.67;;
9288;SDS011;4683;50.864;12.086;2023-08-31T12:47:03;1.80;;;1.00;;
9288;SDS011;4683;50.864;12.086;2023-08-31T12:49:36;1.37;;;1.00;;
9288;SDS011;4683;50.864;12.086;2023-08-31T12:52:06;1.23;;;1.13;;
9288;SDS011;4683;50.864;12.086;2023-08-31T12:54:37;2.17;;;1.43;;
9288;SDS011;4683;50.864;12.086;2023-08-31T12:57:07;2.53;;;2.10;;
9288;SDS011;4683;50.864;12.086;2023-08-31T12:59:41;3.03;;;1.80;;
9288;SDS011;4683;50.864;12.086;2023-08-31T13:02:11;1.83;;;1.60;;
9288;SDS011;4683;50.864;12.086;2023-08-31T13:04:44;2.00;;;1.40;;
9288;SDS011;4683;50.864;12.086;2023-08-31T13:07:21;1.50;;;1.40;;
9288;SDS011;4683;50.864;12.086;2023-08-31T13:09:50;1.80;;;1.10;;
9288;SDS011;4683;50.864;12.086;2023-08-31T13:12:24;1.60;;;1.50;;
9288;SDS011;4683;50.864;12.086;2023-08-31T13:14:53;1.63;;;1.17;;
9288;SDS011;4683;50.864;12.086;2023-08-31T13:17:21;1.27;;;1.17;;
9288;SDS011;4683;50.864;12.086;2023-08-31T13:23:10;1.27;;;0.93;;
9288;SDS011;4683;50.864;12.086;2023-08-31T13:25:42;1.70;;;1.60;;
9288;SDS011;4683;50.864;12.086;2023-08-31T13:28:12;1.50;;;1.33;;
9288;SDS011;4683;50.864;12.086;2023-08-31T13:30:42;1.70;;;0.97;;
9288;SDS011;4683;50.864;12.086;2023-08-31T13:33:15;1.23;;;1.10;;
9288;SDS011;4683;50.864;12.086;2023-08-31T13:35:46;1.27;;;1.27;;
9288;SDS011;4683;50.864;12.086;2023-08-31T13:38:17;1.53;;;1.20;;
9288;SDS011;4683;50.864;12.086;2023-08-31T13:40:46;2.27;;;1.93;;
9288;SDS011;4683;50.864;12.086;2023-08-31T13:43:19;1.93;;;1.40;;
9288;SDS011;4683;50.864;12.086;2023-08-31T13:45:59;1.40;;;1.30;;
9288;SDS011;4683;50.864;12.086;2023-08-31T13:48:35;1.57;;;1.47;;
9288;SDS011;4683;50.864;12.086;2023-08-31T13:51:09;2.13;;;1.50;;
9288;SDS011;4683;50.864;12.086;2023-08-31T13:53:41;1.50;;;1.30;;
9288;SDS011;4683;50.864;12.086;2023-08-31T13:56:16;2.17;;;1.23;;
9288;SDS011;4683;50.864;12.086;2023-08-31T13:58:47;1.40;;;1.30;;
9288;SDS011;4683;50.864;12.086;2023-08-31T14:01:16;1.53;;;1.43;;
9288;SDS011;4683;50.864;12.086;2023-08-31T14:03:46;1.17;;;1.13;;
9288;SDS011;4683;50.864;12.086;2023-08-31T14:06:17;1.77;;;1.17;;
9288;SDS011;4683;50.864;12.086;2023-08-31T14:08:47;1.53;;;0.83;;
9288;SDS011;4683;50.864;12.086;2023-08-31T14:11:17;1.77;;;1.10;;
9288;SDS011;4683;50.864;12.086;2023-08-31T14:13:47;2.20;;;1.57;;
9288;SDS011;4683;50.864;12.086;2023-08-31T14:16:15;2.23;;;1.40;;
9288;SDS011;4683;50.864;12.086;2023-08-31T14:18:44;2.37;;;1.50;;
9288;SDS011;4683;50.864;12.086;2023-08-31T14:21:22;2.50;;;2.13;;
9288;SDS011;4683;50.864;12.086;2023-08-31T14:23:52;1.97;;;1.23;;
9288;SDS011;4683;50.864;12.086;2023-08-31T14:26:23;1.97;;;1.50;;
9288;SDS011;4683;50.864;12.086;2023-08-31T14:28:53;1.63;;;1.50;;
9288;SDS011;4683;50.864;12.086;2023-08-31T14:31:24;2.70;;;1.50;;
9288;SDS011;4683;50.864;12.086;2023-08-31T14:33:53;1.40;;;1.30;;
9288;SDS011;4683;50.864;12.086;2023-08-31T14:36:25;2.13;;;1.33;;
9288;SDS011;4683;50.864;12.086;2023-08-31T14:38:55;1.30;;;1.13;;
9288;SDS011;4683;50.864;12.086;2023-08-31T14:41:25;1.53;;;0.90;;
9288;SDS011;4683;50.864;12.086;2023-08-31T14:43:59;2.50;;;0.97;;
9288;SDS011;4683;50.864;12.086;2023-08-31T14:46:30;1.73;;;1.33;;
9288;SDS011;4683;50.864;12.086;2023-08-31T14:49:03;2.03;;;1.37;;
9288;SDS011;4683;50.864;12.086;2023-08-31T14:51:34;2.27;;;1.50;;
9288;SDS011;4683;50.864;12.086;2023-08-31T14:54:03;1.43;;;1.33;;
9288;SDS011;4683;50.864;12.086;2023-08-31T14:56:34;1.30;;;1.20;;
9288;SDS011;4683;50.864;12.086;2023-08-31T14:59:10;2.80;;;1.70;;
9288;SDS011;4683;50.864;12.086;2023-08-31T15:01:39;2.87;;;1.80;;
9288;SDS011;4683;50.864;12.086;2023-08-31T15:04:08;2.30;;;1.53;;
9288;SDS011;4683;50.864;12.086;2023-08-31T15:06:39;1.73;;;1.63;;
9288;SDS011;4683;50.864;12.086;2023-08-31T15:09:07;2.03;;;1.50;;
9288;SDS011;4683;50.864;12.086;2023-08-31T15:11:36;0.73;;;0.73;;
9288;SDS011;4683;50.864;12.086;2023-08-31T15:14:05;1.77;;;1.40;;
9288;SDS011;4683;50.864;12.086;2023-08-31T15:16:34;1.20;;;1.10;;
9288;SDS011;4683;50.864;12.086;2023-08-31T15:19:03;1.43;;;1.30;;
9288;SDS011;4683;50.864;12.086;2023-08-31T15:21:33;2.30;;;1.77;;
9288;SDS011;4683;50.864;12.086;2023-08-31T15:24:10;2.90;;;1.93;;
9288;SDS011;4683;50.864;12.086;2023-08-31T15:26:46;2.87;;;1.47;;
9288;SDS011;4683;50.864;12.086;2023-08-31T15:29:15;2.17;;;1.73;;
9288;SDS011;4683;50.864;12.086;2023-08-31T15:31:47;1.53;;;1.43;;
9288;SDS011;4683;50.864;12.086;2023-08-31T15:34:15;2.00;;;1.90;;
9288;SDS011;4683;50.864;12.086;2023-08-31T15:36:46;4.53;;;1.93;;
9288;SDS011;4683;50.864;12.086;2023-08-31T15:39:16;1.50;;;1.40;;